Time;durP1;ratioP1;P1;durP2;ratioP2;P2;SDS_P1;SDS_P2;PMS_P1;PMS_P2;Temp;Humidity;BMP_temperature;BMP_pressure;BME280_temperature;BME280_humidity;BME280_pressure;Samples;Min_cycle;Max_cycle;Signal;HPM_P1;HPM_P2
2023/03/22 00:04:01;;;;;;;1060.90;974.23;;;;;;;22.48;44.11;100263.25;20508495;28;20526;-72
2023/03/22 00:14:02;;;;;;;1063.18;976.72;;;;;;;22.48;44.28;100268.53;20516483;28;20042;-71
2023/03/22 00:24:02;;;;;;;1065.00;978.70;;;;;;;22.45;44.26;100255.59;20515198;28;20063;-71
2023/03/22 00:34:03;;;;;;;1131.50;999.90;;;;;;;22.46;44.01;100255.47;20517642;28;20042;-71
2023/03/22 00:44:05;;;;;;;1096.68;998.40;;;;;;;22.44;44.03;100251.31;20514293;28;20055;-72
2023/03/22 00:54:05;;;;;;;614.40;557.57;;;;;;;22.42;44.02;100258.50;20510439;28;20043;-71
2023/03/22 01:04:06;;;;;;;570.50;516.90;;;;;;;22.37;44.49;100251.78;20507862;28;20046;-70
2023/03/22 01:14:08;;;;;;;550.72;498.48;;;;;;;22.37;44.13;100249.16;20517597;28;20054;-71
2023/03/22 01:24:09;;;;;;;535.58;484.48;;;;;;;22.36;44.22;100233.44;20513266;28;20284;-71
2023/03/22 01:34:19;;;;;;;489.63;441.90;;;;;;;22.32;44.40;100222.31;20505212;28;20051;-72
2023/03/22 01:44:21;;;;;;;465.50;419.55;;;;;;;22.34;44.01;100219.56;20513242;28;21670;-72
2023/03/22 01:54:39;;;;;;;466.42;420.55;;;;;;;22.33;43.95;100233.72;20517902;28;20157;-71
2023/03/22 02:04:39;;;;;;;439.00;395.13;;;;;;;22.30;44.40;100233.97;20510430;28;20055;-70
2023/03/22 02:14:51;;;;;;;452.55;407.63;;;;;;;22.29;44.26;100248.09;20513334;28;20082;-72
2023/03/22 02:25:26;;;;;;;439.50;395.43;;;;;;;22.26;44.07;100243.94;20503439;28;20051;-71
2023/03/22 02:35:57;;;;;;;462.30;416.77;;;;;;;22.25;44.01;100244.88;20502451;28;20569;-70
2023/03/22 02:46:07;;;;;;;459.63;414.20;;;;;;;22.25;44.00;100251.97;20506429;28;20517;-70
2023/03/22 02:56:13;;;;;;;452.67;407.77;;;;;;;22.21;44.00;100259.31;20522526;28;20043;-71
2023/03/22 03:06:18;;;;;;;458.90;413.85;;;;;;;22.20;43.83;100265.53;20528894;28;21866;-71
2023/03/22 03:16:21;;;;;;;450.23;405.65;;;;;;;22.17;44.50;100253.47;20523761;28;20102;-71
2023/03/22 03:26:21;;;;;;;;;;;;;;;22.17;43.92;100252.63;20521957;28;20086;-71
2023/03/22 03:36:24;;;;;;;446.35;402.20;;;;;;;22.15;44.08;100262.47;20518855;28;19926;-71
2023/03/22 03:46:26;;;;;;;450.85;406.33;;;;;;;22.12;44.16;100266.19;20517708;28;20053;-72
2023/03/22 03:56:27;;;;;;;440.20;396.43;;;;;;;22.11;44.02;100267.16;20507997;28;20047;-70
2023/03/22 04:06:27;;;;;;;422.70;380.73;;;;;;;22.12;44.17;100260.94;20514578;28;20047;-73
2023/03/22 04:16:28;;;;;;;422.08;379.80;;;;;;;22.09;44.04;100269.06;20519353;28;20178;-71
2023/03/22 04:26:28;;;;;;;423.77;381.70;;;;;;;22.06;44.54;100257.00;20516337;28;20047;-71
2023/03/22 04:36:29;;;;;;;424.50;382.10;;;;;;;22.06;44.47;100287.81;20523206;28;20080;-70
2023/03/22 04:46:32;;;;;;;447.83;403.55;;;;;;;22.07;44.43;100281.56;20509196;28;20298;-69
2023/03/22 04:56:32;;;;;;;459.58;414.52;;;;;;;22.07;44.67;100281.56;20522699;28;20058;-71
2023/03/22 05:06:43;;;;;;;438.10;394.58;;;;;;;22.09;44.28;100284.91;20505412;28;20043;-70
2023/03/22 05:16:43;;;;;;;444.40;400.27;;;;;;;22.14;44.88;100293.28;20501078;28;20047;-70
2023/03/22 05:26:52;;;;;;;438.98;395.30;;;;;;;22.18;45.50;100292.06;20520220;28;20557;-70
2023/03/22 05:36:53;;;;;;;468.05;421.75;;;;;;;22.23;46.24;100303.06;20522962;28;20053;-70
2023/03/22 05:46:53;;;;;;;450.08;405.05;;;;;;;22.21;46.56;100326.06;20520335;28;20051;-70
2023/03/22 05:56:54;;;;;;;368.77;331.45;;;;;;;22.20;45.54;100331.47;20524217;28;20074;-76
2023/03/22 06:06:56;;;;;;;494.00;445.80;;;;;;;22.22;45.32;100340.13;20529014;28;20055;-74
2023/03/22 06:16:56;;;;;;;448.48;403.63;;;;;;;21.96;40.45;100343.09;20494676;28;20046;-74
2023/03/22 06:26:57;;;;;;;456.40;411.40;;;;;;;22.10;42.76;100335.84;20524064;28;20035;-75
2023/03/22 06:37:02;;;;;;;483.00;435.58;;;;;;;22.17;44.68;100358.13;20542064;28;20078;-76
2023/03/22 06:47:03;;;;;;;466.38;420.58;;;;;;;22.22;44.90;100354.13;20540949;28;20120;-76
2023/03/22 06:57:04;;;;;;;487.55;439.58;;;;;;;22.26;45.34;100356.53;20525816;28;20047;-73
2023/03/22 07:07:06;;;;;;;484.30;437.13;;;;;;;22.28;45.28;100363.34;20542954;28;20049;-76
2023/03/22 07:17:07;;;;;;;487.30;439.63;;;;;;;22.30;45.67;100364.06;20530323;28;20101;-76
2023/03/22 07:27:08;;;;;;;563.08;510.17;;;;;;;22.33;45.99;100370.88;20528466;28;20051;-76
2023/03/22 07:37:09;;;;;;;918.88;840.28;;;;;;;22.34;46.07;100369.91;20510600;28;20047;-76
2023/03/22 07:47:09;;;;;;;469.42;422.80;;;;;;;22.43;45.95;100371.81;20517254;28;20051;-75
2023/03/22 07:57:12;;;;;;;440.52;396.17;;;;;;;22.46;45.84;100370.72;20533879;28;20035;-76
2023/03/22 08:07:14;;;;;;;393.95;354.33;;;;;;;22.48;45.71;100361.72;20521223;28;20127;-75
2023/03/22 08:17:14;;;;;;;410.07;368.77;;;;;;;22.52;45.63;100354.38;20537462;28;20039;-76
2023/03/22 08:27:17;;;;;;;409.85;368.35;;;;;;;22.53;45.30;100354.25;20503374;28;20118;-74
2023/03/22 08:37:21;;;;;;;402.10;361.65;;;;;;;22.57;45.66;100364.53;20519826;28;20050;-76
2023/03/22 08:47:21;;;;;;;458.17;412.42;;;;;;;22.57;45.62;100378.59;20511113;28;20046;-76
2023/03/22 08:57:22;;;;;;;414.98;372.75;;;;;;;22.57;45.09;100364.53;20522988;28;20074;-76
2023/03/22 09:07:23;;;;;;;401.85;361.02;;;;;;;22.58;45.46;100366.22;20504255;28;20049;-77
2023/03/22 09:17:23;;;;;;;385.52;346.73;;;;;;;22.58;45.10;100368.88;20525451;28;20042;-77
2023/03/22 09:27:24;;;;;;;395.02;355.27;;;;;;;22.58;45.08;100364.41;20517469;28;20051;-76
2023/03/22 09:37:29;;;;;;;400.88;360.17;;;;;;;22.57;45.06;100354.84;20507228;28;20162;-77
2023/03/22 09:47:36;;;;;;;483.95;436.42;;;;;;;22.55;44.96;100344.41;20511045;28;20046;-76
2023/03/22 09:57:37;;;;;;;377.38;339.48;;;;;;;22.57;45.14;100343.44;20525560;28;20043;-76
2023/03/22 10:08:04;;;;;;;407.70;366.38;;;;;;;22.57;45.14;100336.38;20521650;28;20533;-77
2023/03/22 10:18:08;;;;;;;415.45;373.30;;;;;;;22.58;44.54;100347.75;20516659;28;20070;-77
2023/03/22 10:28:22;;;;;;;398.50;358.38;;;;;;;22.55;44.62;100340.94;20502744;28;20047;-76
2023/03/22 10:38:30;;;;;;;460.35;414.52;;;;;;;22.52;44.65;100338.53;20517468;28;20028;-76
2023/03/22 10:48:42;;;;;;;405.33;365.05;;;;;;;22.47;44.44;100332.81;20517702;28;20051;-76
2023/03/22 10:58:43;;;;;;;430.95;387.73;;;;;;;22.45;44.29;100335.59;20517937;28;20043;-75
2023/03/22 11:08:49;;;;;;;476.98;430.40;;;;;;;22.43;44.00;100321.69;20534407;28;20038;-76
2023/03/22 11:18:50;;;;;;;418.90;377.30;;;;;;;22.44;43.91;100306.72;20533476;28;20051;-76
2023/03/22 11:28:51;;;;;;;428.33;385.45;;;;;;;22.44;44.04;100288.25;20527094;28;20058;-76
2023/03/22 11:39:06;;;;;;;423.08;381.15;;;;;;;22.42;43.97;100280.44;20528579;28;20043;-76
2023/03/22 11:49:15;;;;;;;463.70;418.33;;;;;;;22.38;44.36;100282.50;20525901;28;20043;-76
2023/03/22 11:59:29;;;;;;;539.40;488.30;;;;;;;22.39;44.22;100267.50;20524066;28;20097;-76
2023/03/22 12:09:45;;;;;;;545.65;494.42;;;;;;;22.41;44.26;100284.06;20514818;28;20042;-77
2023/03/22 12:19:51;;;;;;;542.67;491.52;;;;;;;22.43;43.99;100281.28;20510595;28;20146;-75
2023/03/22 12:30:04;;;;;;;568.67;515.80;;;;;;;22.43;44.32;100271.56;20516450;28;20046;-76
2023/03/22 12:40:19;;;;;;;548.17;496.67;;;;;;;22.47;44.08;100266.84;20524200;28;20055;-76
2023/03/22 12:50:31;;;;;;;509.83;461.02;;;;;;;22.46;44.36;100263.41;20522798;28;20058;-76
2023/03/22 13:00:58;;;;;;;564.53;511.83;;;;;;;22.47;44.24;100257.16;20505616;28;20116;-76
2023/03/22 13:11:02;;;;;;;598.20;543.30;;;;;;;22.48;44.08;100239.50;20455198;28;20039;-78
2023/03/22 13:21:09;;;;;;;503.13;454.67;;;;;;;22.48;44.32;100229.78;20519625;28;20577;-77
2023/03/22 13:31:29;;;;;;;519.47;470.00;;;;;;;22.54;44.03;100223.16;20528564;28;20051;-76
2023/03/22 13:41:34;;;;;;;529.72;479.48;;;;;;;22.55;44.22;100219.56;20526776;28;20035;-76
2023/03/22 13:51:34;;;;;;;562.63;509.85;;;;;;;22.55;44.28;100212.44;20532554;28;20130;-76
2023/03/22 14:02:09;;;;;;;626.63;569.75;;;;;;;22.54;44.19;100197.63;20508085;28;20035;-76
2023/03/22 14:12:21;;;;;;;578.03;524.28;;;;;;;22.55;44.04;100185.25;20506732;28;20069;-76
2023/03/22 14:22:32;;;;;;;619.58;563.05;;;;;;;22.58;43.61;100182.31;20512081;28;21350;-78
2023/03/22 14:32:37;;;;;;;540.92;489.48;;;;;;;22.61;44.41;100174.16;20495172;28;20058;-77
2023/03/22 14:42:38;;;;;;;577.03;523.03;;;;;;;22.64;44.36;100176.53;20523549;28;20043;-77
2023/03/22 14:52:39;;;;;;;607.25;551.45;;;;;;;22.62;44.14;100165.28;20530252;28;20098;-75
2023/03/22 15:02:47;;;;;;;618.53;561.88;;;;;;;22.58;43.49;100157.75;20532090;28;20090;-77
2023/03/22 15:12:51;;;;;;;582.67;528.63;;;;;;;22.55;43.35;100157.03;20525963;28;20545;-76
2023/03/22 15:22:54;;;;;;;616.22;559.78;;;;;;;22.50;43.44;100146.06;20511639;28;20042;-75
2023/03/22 15:33:07;;;;;;;709.40;646.35;;;;;;;22.50;43.46;100140.78;20527074;28;20499;-76
2023/03/22 15:43:33;;;;;;;731.47;666.63;;;;;;;22.50;43.39;100130.22;20525204;28;20055;-76
2023/03/22 15:53:35;;;;;;;721.13;656.83;;;;;;;22.63;44.00;100129.16;20504774;28;20046;-76
2023/03/22 16:03:41;;;;;;;746.37;680.07;;;;;;;22.82;43.97;100134.47;20533464;28;20049;-75
2023/03/22 16:13:42;;;;;;;275.27;248.35;;;;;;;22.87;44.00;100128.78;20524828;28;20382;-76
2023/03/22 16:23:44;;;;;;;307.17;277.02;;;;;;;22.76;44.00;100135.03;20495691;28;20046;-76
2023/03/22 16:33:45;;;;;;;330.43;298.10;;;;;;;22.76;44.13;100126.28;20489737;28;20471;-75
2023/03/22 16:43:46;;;;;;;249.83;225.80;;;;;;;22.72;43.83;100133.63;20507804;28;20047;-80
2023/03/22 16:53:47;;;;;;;290.42;262.08;;;;;;;22.67;43.61;100138.50;20502504;28;20070;-78
2023/03/22 17:03:50;;;;;;;337.52;304.58;;;;;;;22.52;43.73;100133.56;20518357;28;20070;-77
2023/03/22 17:13:52;;;;;;;264.70;239.32;;;;;;;22.48;43.33;100142.72;20504222;28;20088;-77
2023/03/22 17:23:52;;;;;;;226.10;204.60;;;;;;;22.52;43.54;100138.84;20510087;28;20047;-77
2023/03/22 17:33:53;;;;;;;240.30;217.25;;;;;;;22.55;45.01;100143.03;20500229;28;20110;-76
2023/03/22 17:43:53;;;;;;;275.77;248.95;;;;;;;22.57;45.67;100154.28;20504689;28;20137;-74
2023/03/22 17:53:54;;;;;;;283.67;255.90;;;;;;;22.55;45.16;100162.31;20513569;28;20031;-75
2023/03/22 18:03:54;;;;;;;302.35;272.95;;;;;;;22.57;45.33;100170.13;20503272;28;20055;-76
2023/03/22 18:13:55;;;;;;;280.00;252.65;;;;;;;22.57;46.29;100175.41;20504551;28;20887;-76
2023/03/22 18:23:57;;;;;;;206.20;187.07;;;;;;;22.58;46.60;100186.78;20503197;28;20047;-74
2023/03/22 18:33:58;;;;;;;192.20;174.23;;;;;;;22.58;47.12;100189.41;20503951;28;20486;-74
2023/03/22 18:44:00;;;;;;;225.07;203.23;;;;;;;22.58;46.85;100189.41;20494555;28;20026;-74
2023/03/22 18:54:01;;;;;;;235.10;212.55;;;;;;;22.57;47.34;100187.75;20512364;28;20047;-77
2023/03/22 19:04:04;;;;;;;279.80;252.90;;;;;;;22.58;48.04;100197.34;20497455;28;20057;-76
2023/03/22 19:14:08;;;;;;;197.88;179.43;;;;;;;22.59;48.42;100186.63;20509649;28;20046;-78
2023/03/22 19:24:09;;;;;;;208.40;188.85;;;;;;;22.58;48.76;100189.41;20514865;28;20502;-75
2023/03/22 19:34:13;;;;;;;231.38;208.80;;;;;;;22.63;49.57;100185.41;20517584;28;20062;-77
2023/03/22 19:44:19;;;;;;;240.32;217.30;;;;;;;22.65;49.58;100182.63;20509889;28;20122;-75
2023/03/22 19:54:20;;;;;;;229.48;207.40;;;;;;;22.65;49.21;100172.09;20515447;28;20166;-75
2023/03/22 20:04:22;;;;;;;231.82;209.68;;;;;;;22.58;49.13;100176.22;20524411;28;20193;-76
2023/03/22 20:14:22;;;;;;;225.80;204.20;;;;;;;22.54;48.54;100170.38;20508609;28;20047;-75
2023/03/22 20:24:23;;;;;;;240.60;216.93;;;;;;;22.54;48.25;100176.50;20523103;28;20118;-74
2023/03/22 20:34:24;;;;;;;246.52;222.85;;;;;;;22.43;48.06;100173.13;20457186;28;20046;-74
2023/03/22 20:44:25;;;;;;;207.65;188.10;;;;;;;22.43;47.90;100176.56;20448364;28;20039;-73
2023/03/22 20:54:26;;;;;;;201.15;182.30;;;;;;;22.39;48.39;100183.09;20445481;28;20129;-73
2023/03/22 21:04:27;;;;;;;200.20;181.45;;;;;;;22.45;48.97;100184.34;20444593;28;20077;-74
2023/03/22 21:14:27;;;;;;;223.13;202.02;;;;;;;22.47;48.91;100179.78;20452572;28;20043;-76
2023/03/22 21:24:28;;;;;;;216.25;195.73;;;;;;;22.45;48.65;100181.72;20448281;28;20185;-73
2023/03/22 21:34:28;;;;;;;240.23;217.23;;;;;;;22.46;48.68;100183.38;20533565;28;20044;-74
2023/03/22 21:44:30;;;;;;;224.30;203.20;;;;;;;22.44;48.36;100182.72;20527550;28;20439;-74
2023/03/22 21:54:31;;;;;;;245.50;222.03;;;;;;;22.42;48.61;100187.28;20505992;28;20049;-74
2023/03/22 22:04:31;;;;;;;227.90;206.07;;;;;;;22.37;48.30;100199.03;20527341;28;20115;-74
2023/03/22 22:14:32;;;;;;;255.88;231.43;;;;;;;22.42;48.59;100203.09;20505316;28;20043;-73
2023/03/22 22:24:32;;;;;;;238.25;215.65;;;;;;;22.37;48.26;100201.66;20519936;28;20055;-74
2023/03/22 22:34:33;;;;;;;258.48;233.68;;;;;;;22.33;48.23;100191.50;20521117;28;20042;-72
2023/03/22 22:44:34;;;;;;;263.52;238.32;;;;;;;22.30;48.64;100199.66;20527622;28;20055;-74
2023/03/22 22:54:35;;;;;;;271.07;245.17;;;;;;;22.25;48.02;100199.22;20506824;28;20047;-73
2023/03/22 23:04:35;;;;;;;272.17;245.95;;;;;;;22.24;48.30;100201.03;20533644;28;20288;-73
2023/03/22 23:14:36;;;;;;;344.88;311.65;;;;;;;22.34;49.00;100191.38;20531290;28;20420;-73
2023/03/22 23:24:36;;;;;;;380.30;343.47;;;;;;;22.40;48.90;100203.25;20540408;28;21206;-73
2023/03/22 23:34:36;;;;;;;328.98;297.10;;;;;;;22.39;48.34;100209.47;20534763;28;20293;-73
2023/03/22 23:44:37;;;;;;;226.50;204.95;;;;;;;22.36;48.76;100200.00;20534535;28;20054;-74
2023/03/22 23:54:37;;;;;;;204.88;185.82;;;;;;;22.33;48.44;100199.41;20524265;28;20043;-74
